Weather History for Rugby, ND

Change the Weather History Date:

Thursday, January 3, 2013

  Actual Average Record
Temperature  
Mean Temperature 15 °F -  
Max Temperature 24 °F 15 °F 41 °F (2012)
Min Temperature 6 °F -4 °F -31 °F (1982)
Degree Days  
Heating Degree Days 50    
Moisture  
Dew Point 11 °F    
Average Humidity 82    
Maximum Humidity 92    
Minimum Humidity 68    
Precipitation  
Precipitation 0.00 in - - ()
Sea Level Pressure  
Sea Level Pressure 30.04 in    
Wind  
Wind Speed 11 mph (WSW)    
Max Wind Speed 17 mph    
Max Gust Speed -    
Visibility 10 miles    
Events Snow    
Averages and records for this station are not official NWS values.
T = Trace of Precipitation, MM = Missing Value Source: NWS Daily Summary

Daily Weather History Graph

Daily Weather History Graph

Search for Another Location

Airport:

Trip Planner

Search our weather history database for the weather conditions in past years. The results will help you decide how hot, cold, wet, or windy it might be!

Date:

Astronomy

Jan. 03, 2013 Rise Set
Actual Time 8:31 AM CST 4:58 PM CST
Civil Twilight 7:54 AM CST 5:34 PM CST
Nautical Twilight 7:15 AM CST 6:14 PM CST
Astronomical Twilight 6:37 AM CST 6:52 PM CST
Moon No Moon Rise 11:11 AM CST (1/3)
Length of Visible Light 9h 39m
Length of Day
8h 27m
Waning Gibbous, 65% of the Moon is Illuminated
Jan 3
Waning Gibbous
Jan 4
Last Quarter
Jan 11
New
Jan 18
First Quarter
Jan 26
Full

Hourly Weather History & Observations

Time (CST) Temp. Windchill Dew Point Humidity Pressure Visibility Wind Dir Wind Speed Gust Speed Precip Events Conditions
12:15 AM 6.8 °F -6.9 °F 1.4 °F 79% 30.22 in 10.0 mi West 9.2 mph - N/A   Overcast
12:35 AM 6.8 °F -4.8 °F 5.0 °F 92% 30.23 in 10.0 mi West 6.9 mph - N/A   Overcast
12:55 AM 8.6 °F -3.7 °F 5.0 °F 85% 30.23 in 10.0 mi West 8.1 mph - N/A   Overcast
1:15 AM 8.6 °F -2.6 °F 6.8 °F 92% 30.22 in 10.0 mi WSW 6.9 mph - N/A   Overcast
1:35 AM 10.4 °F -1.5 °F 6.8 °F 85% 30.22 in 10.0 mi West 8.1 mph - N/A   Overcast
1:55 AM 10.4 °F -1.5 °F 6.8 °F 85% 30.23 in 10.0 mi West 8.1 mph - N/A   Overcast
2:15 AM 10.4 °F -3.3 °F 8.6 °F 92% 30.22 in 10.0 mi West 10.4 mph - N/A   Overcast
2:35 AM 10.4 °F -3.3 °F 8.6 °F 92% 30.20 in 10.0 mi West 10.4 mph - N/A   Overcast
2:55 AM 10.4 °F -4.1 °F 8.6 °F 92% 30.20 in 10.0 mi West 11.5 mph - N/A   Overcast
3:15 AM 8.6 °F -5.5 °F 5.0 °F 85% 30.19 in 10.0 mi WSW 10.4 mph - N/A   Mostly Cloudy
3:35 AM 8.6 °F -3.7 °F 6.8 °F 92% 30.20 in 10.0 mi West 8.1 mph - N/A   Overcast
3:55 AM 10.4 °F -3.3 °F 8.6 °F 92% 30.21 in 10.0 mi West 10.4 mph - N/A   Overcast
4:15 AM 10.4 °F -3.3 °F 8.6 °F 92% 30.18 in 10.0 mi West 10.4 mph - N/A   Overcast
4:35 AM 10.4 °F -4.1 °F 8.6 °F 92% 30.19 in 10.0 mi West 11.5 mph - N/A Snow Light Snow
4:55 AM 10.4 °F -3.3 °F 6.8 °F 85% 30.18 in 10.0 mi West 10.4 mph - N/A   Mostly Cloudy
5:15 AM 10.4 °F -4.1 °F 6.8 °F 85% 30.18 in 10.0 mi West 11.5 mph - N/A   Overcast
5:35 AM 10.4 °F -3.3 °F 8.6 °F 92% 30.17 in 10.0 mi West 10.4 mph - N/A Snow Light Snow
5:55 AM 10.4 °F -4.1 °F 8.6 °F 92% 30.16 in 10.0 mi West 11.5 mph - N/A   Overcast
6:15 AM 12.2 °F -2.5 °F 8.6 °F 85% 30.15 in 10.0 mi WSW 12.7 mph - N/A   Overcast
6:35 AM 14.0 °F -0.8 °F 10.4 °F 86% 30.15 in 10.0 mi West 13.8 mph - N/A   Overcast
6:55 AM 14.0 °F -1.4 °F 10.4 °F 86% 30.14 in 10.0 mi WSW 15.0 mph - N/A   Overcast
7:15 AM 14.0 °F -0.8 °F 10.4 °F 86% 30.13 in 10.0 mi WSW 13.8 mph - N/A   Overcast
7:35 AM 12.2 °F -2.5 °F 8.6 °F 85% 30.13 in 10.0 mi WSW 12.7 mph - N/A   Mostly Cloudy
7:55 AM 10.4 °F -4.1 °F 6.8 °F 85% 30.12 in 10.0 mi WSW 11.5 mph - N/A   Partly Cloudy
8:15 AM 8.6 °F -6.3 °F 5.0 °F 85% 30.11 in 10.0 mi WSW 11.5 mph - N/A   Clear
8:35 AM 10.4 °F -4.8 °F 6.8 °F 85% 30.10 in 10.0 mi SW 12.7 mph - N/A   Clear
8:55 AM 10.4 °F -4.8 °F 8.6 °F 92% 30.09 in 10.0 mi SW 12.7 mph - N/A   Clear
9:15 AM 10.4 °F -4.8 °F 8.6 °F 92% 30.09 in 10.0 mi SW 12.7 mph - N/A   Clear
9:35 AM 10.4 °F -5.4 °F 8.6 °F 92% 30.07 in 10.0 mi SW 13.8 mph - N/A   Clear
9:55 AM 10.4 °F -4.8 °F 8.6 °F 92% 30.07 in 10.0 mi SW 12.7 mph - N/A   Clear
10:15 AM 12.2 °F -1.8 °F 8.6 °F 85% 30.07 in 10.0 mi SW 11.5 mph - N/A   Clear
10:35 AM 14.0 °F -1.4 °F 10.4 °F 86% 30.07 in 10.0 mi WSW 15.0 mph - N/A   Clear
10:55 AM 15.8 °F 0.3 °F 12.2 °F 86% 30.06 in 10.0 mi SW 16.1 mph - N/A   Clear
11:15 AM 15.8 °F 0.3 °F 12.2 °F 86% 30.05 in 10.0 mi SW 16.1 mph - N/A   Clear
11:35 AM 17.6 °F 2.2 °F 14.0 °F 86% 30.04 in 10.0 mi SW 17.3 mph - N/A   Clear
11:55 AM 17.6 °F 3.2 °F 14.0 °F 86% 30.02 in 10.0 mi WSW 15.0 mph - N/A   Clear
12:15 PM 19.4 °F 5.0 °F 14.0 °F 80% 30.02 in 10.0 mi WSW 16.1 mph - N/A   Clear
12:35 PM 21.2 °F 8.9 °F 15.8 °F 80% 30.01 in 10.0 mi WSW 12.7 mph - N/A   Clear
12:55 PM 23.0 °F 10.1 °F 15.8 °F 74% 29.99 in 10.0 mi SW 15.0 mph - N/A   Clear
1:15 PM 23.0 °F 10.1 °F 15.8 °F 74% 29.98 in 10.0 mi SW 15.0 mph - N/A   Clear
1:35 PM 23.0 °F 10.6 °F 15.8 °F 74% 29.98 in 10.0 mi WSW 13.8 mph - N/A   Clear
1:55 PM 24.8 °F 11.9 °F 15.8 °F 69% 29.96 in 10.0 mi WSW 16.1 mph - N/A   Clear
2:15 PM 24.8 °F 11.9 °F 17.6 °F 74% 29.96 in 10.0 mi WSW 16.1 mph - N/A   Clear
2:35 PM 24.8 °F 13.4 °F 17.6 °F 74% 29.95 in 10.0 mi WSW 12.7 mph - N/A   Clear
2:55 PM 24.8 °F 13.4 °F 17.6 °F 74% 29.94 in 10.0 mi WSW 12.7 mph - N/A   Clear
3:15 PM 24.8 °F 12.9 °F 17.6 °F 74% 29.94 in 10.0 mi WSW 13.8 mph - N/A   Clear
3:35 PM 24.8 °F 13.4 °F 15.8 °F 69% 29.94 in 10.0 mi West 12.7 mph - N/A   Clear
3:55 PM 23.0 °F 11.1 °F 15.8 °F 74% 29.93 in 10.0 mi WSW 12.7 mph - N/A   Clear
4:15 PM 23.0 °F 9.2 °F 15.8 °F 74% 29.92 in 10.0 mi WSW 17.3 mph - N/A   Clear
4:35 PM 23.0 °F 10.6 °F 14.0 °F 68% 29.92 in 10.0 mi WSW 13.8 mph - N/A   Clear
4:55 PM 19.4 °F 7.9 °F 14.0 °F 80% 29.94 in 10.0 mi West 10.4 mph - N/A   Clear
5:15 PM 19.4 °F 7.2 °F 14.0 °F 80% 29.93 in 10.0 mi WSW 11.5 mph - N/A   Clear
5:35 PM 21.2 °F 7.3 °F 12.2 °F 68% 29.92 in 10.0 mi WSW 16.1 mph - N/A   Clear
5:55 PM 19.4 °F 6.0 °F 12.2 °F 74% 29.92 in 10.0 mi WSW 13.8 mph - N/A   Clear
6:15 PM 19.4 °F 5.0 °F 12.2 °F 74% 29.92 in 10.0 mi West 16.1 mph - N/A   Clear
6:35 PM 19.4 °F 5.0 °F 12.2 °F 74% 29.92 in 10.0 mi WSW 16.1 mph - N/A   Clear
6:55 PM 19.4 °F 4.5 °F 12.2 °F 74% 29.92 in 10.0 mi West 17.3 mph - N/A   Clear
7:15 PM 19.4 °F 5.0 °F 12.2 °F 74% 29.91 in 10.0 mi West 16.1 mph - N/A   Clear
7:35 PM 17.6 °F 5.7 °F 10.4 °F 73% 29.92 in 10.0 mi West 10.4 mph - N/A   Clear
7:55 PM 17.6 °F 4.3 °F 10.4 °F 73% 29.92 in 10.0 mi West 12.7 mph - N/A   Clear
8:15 PM 17.6 °F 3.2 °F 12.2 °F 79% 29.92 in 10.0 mi West 15.0 mph - N/A   Clear
8:35 PM 19.4 °F 5.0 °F 12.2 °F 74% 29.92 in 10.0 mi West 16.1 mph - N/A   Clear
8:55 PM 17.6 °F 2.7 °F 12.2 °F 79% 29.92 in 10.0 mi West 16.1 mph - N/A   Clear
9:15 PM 17.6 °F 3.7 °F 12.2 °F 79% 29.92 in 10.0 mi West 13.8 mph - N/A   Clear
9:35 PM 17.6 °F 5.0 °F 10.4 °F 73% 29.92 in 10.0 mi West 11.5 mph - N/A   Clear
9:55 PM 15.8 °F 1.4 °F 10.4 °F 79% 29.92 in 10.0 mi West 13.8 mph - N/A   Clear
10:15 PM 15.8 °F 2.7 °F 10.4 °F 79% 29.93 in 10.0 mi West 11.5 mph - N/A   Clear
10:35 PM 14.0 °F 3.9 °F 8.6 °F 79% 29.94 in 10.0 mi West 6.9 mph - N/A   Clear
10:55 PM 12.2 °F 0.7 °F 8.6 °F 85% 29.94 in 10.0 mi WSW 8.1 mph - N/A   Clear
11:15 PM 10.4 °F 4.0 °F 6.8 °F 85% 29.95 in 10.0 mi West 3.5 mph - N/A   Clear
11:35 PM 12.2 °F -1.0 °F 8.6 °F 85% 29.95 in 10.0 mi West 10.4 mph - N/A   Clear
11:55 PM 10.4 °F -1.5 °F 6.8 °F 85% 29.96 in 10.0 mi West 8.1 mph - N/A   Clear